createdAt,value
2023-11-18T00:01:54.068Z,81.08
2023-11-18T00:06:55.843Z,80.71
2023-11-18T00:11:57.440Z,80.57
2023-11-18T00:17:00.374Z,80.37
2023-11-18T00:22:02.055Z,80.64
2023-11-18T00:27:07.647Z,80.04
2023-11-18T00:32:09.386Z,80.17
2023-11-18T00:37:11.044Z,79.98
2023-11-18T00:42:12.610Z,79.73
2023-11-18T00:52:33.841Z,79.41
2023-11-18T00:57:36.241Z,78.75
2023-11-18T01:02:40.126Z,78.37
2023-11-18T01:07:42.487Z,78.35
2023-11-18T01:12:47.227Z,78.60
2023-11-18T01:17:49.715Z,78.91
2023-11-18T01:22:51.582Z,78.90
2023-11-18T01:27:53.179Z,79.07
2023-11-18T01:32:54.823Z,79.03
2023-11-18T01:37:56.650Z,78.74
2023-11-18T01:42:58.252Z,78.76
2023-11-18T01:47:59.973Z,78.89
2023-11-18T01:53:02.202Z,78.97
2023-11-18T01:58:08.995Z,78.59
2023-11-18T02:03:10.773Z,78.78
2023-11-18T02:08:14.760Z,78.88
2023-11-18T02:13:32.421Z,78.75
2023-11-18T02:18:35.023Z,78.66
2023-11-18T02:23:36.808Z,78.54
2023-11-18T02:28:38.658Z,78.57
2023-11-18T02:34:00.584Z,78.11
2023-11-18T02:39:08.456Z,78.03
2023-11-18T02:44:11.651Z,78.06
2023-11-18T02:49:13.685Z,77.91
2023-11-18T02:54:17.636Z,78.10
2023-11-18T02:59:19.415Z,77.98
2023-11-18T03:04:21.026Z,78.19
2023-11-18T03:09:22.561Z,78.07
2023-11-18T03:14:24.592Z,78.06
2023-11-18T03:19:26.237Z,77.96
2023-11-18T03:24:29.516Z,77.79
2023-11-18T03:29:31.186Z,77.84
2023-11-18T03:34:33.744Z,77.84
2023-11-18T03:39:35.563Z,78.02
2023-11-18T03:44:38.703Z,77.86
2023-11-18T03:49:40.450Z,77.75
2023-11-18T03:54:43.037Z,77.76
2023-11-18T03:59:44.655Z,77.76
2023-11-18T04:04:46.350Z,77.90
2023-11-18T04:09:48.024Z,77.74
2023-11-18T04:14:49.859Z,77.69
2023-11-18T04:19:51.557Z,77.84
2023-11-18T04:24:53.192Z,77.53
2023-11-18T04:29:54.804Z,77.40
2023-11-18T04:34:56.727Z,77.33
2023-11-18T04:39:58.334Z,77.33
2023-11-18T04:45:00.305Z,77.36
2023-11-18T04:50:01.966Z,77.50
2023-11-18T04:55:06.595Z,77.78
2023-11-18T05:00:12.034Z,77.58
2023-11-18T05:05:13.862Z,77.71
2023-11-18T05:10:15.556Z,77.80
2023-11-18T05:15:17.153Z,78.14
2023-11-18T05:20:18.992Z,78.13
2023-11-18T05:25:21.155Z,78.15
2023-11-18T05:30:24.433Z,78.19
2023-11-18T05:35:29.525Z,78.19
2023-11-18T05:40:31.193Z,78.23
2023-11-18T05:45:55.351Z,78.30
2023-11-18T05:50:56.956Z,78.53
2023-11-18T05:55:58.497Z,78.56
2023-11-18T06:01:00.078Z,78.49
2023-11-18T06:06:01.668Z,78.25
2023-11-18T06:11:13.998Z,78.49
2023-11-18T06:16:25.466Z,78.23
2023-11-18T06:21:32.168Z,78.73
2023-11-18T06:26:37.296Z,78.58
2023-11-18T06:31:39.113Z,78.69
2023-11-18T06:36:40.793Z,78.63
2023-11-18T06:41:50.074Z,78.73
2023-11-18T06:46:52.282Z,78.67
2023-11-18T06:51:54.255Z,78.06
2023-11-18T06:56:55.881Z,78.64
2023-11-18T07:01:57.470Z,78.23
2023-11-18T07:06:59.260Z,78.23
2023-11-18T07:12:00.777Z,77.92
2023-11-18T07:17:02.453Z,77.96
2023-11-18T07:22:07.670Z,77.70
2023-11-18T07:27:12.503Z,77.57
2023-11-18T07:32:15.125Z,77.43
2023-11-18T07:37:17.672Z,77.66
2023-11-18T07:42:19.523Z,77.66
2023-11-18T07:47:22.685Z,77.43
2023-11-18T07:52:25.093Z,77.34
2023-11-18T07:57:26.671Z,77.55
2023-11-18T08:02:29.178Z,77.08
2023-11-18T08:07:30.795Z,76.76
2023-11-18T08:12:36.030Z,77.00
2023-11-18T08:17:38.049Z,76.34
2023-11-18T08:22:39.828Z,76.69
2023-11-18T08:27:42.143Z,76.29
2023-11-18T08:32:46.468Z,76.11
2023-11-18T08:37:48.924Z,75.86
2023-11-18T08:42:52.124Z,76.13
2023-11-18T08:47:54.546Z,75.92
2023-11-18T08:53:00.124Z,75.71
2023-11-18T08:58:04.992Z,75.95
2023-11-18T09:03:07.244Z,75.56
2023-11-18T09:08:09.083Z,75.68
2023-11-18T09:13:13.129Z,75.51
2023-11-18T09:18:14.839Z,75.23
2023-11-18T09:23:19.933Z,75.11
2023-11-18T09:28:25.699Z,75.70
2023-11-18T09:33:33.796Z,75.60
2023-11-18T09:38:36.981Z,75.25
2023-11-18T09:43:49.353Z,75.47
2023-11-18T09:49:03.092Z,75.60
2023-11-18T09:54:19.220Z,75.56
2023-11-18T09:59:31.233Z,75.41
2023-11-18T10:04:34.305Z,75.13
2023-11-18T10:09:40.124Z,75.68
2023-11-18T10:14:44.902Z,75.67
2023-11-18T10:19:57.301Z,75.02
2023-11-18T10:25:02.086Z,74.71
2023-11-18T10:30:20.387Z,74.64
2023-11-18T10:35:22.428Z,74.89
2023-11-18T10:40:25.386Z,75.09
2023-11-18T10:45:28.792Z,74.50
2023-11-18T10:50:33.403Z,75.09
2023-11-18T10:55:39.372Z,74.51
2023-11-18T11:01:01.609Z,74.93
2023-11-18T11:06:18.348Z,75.00
2023-11-18T11:11:26.820Z,74.74
2023-11-18T11:16:52.643Z,75.32
2023-11-18T11:22:07.411Z,75.73
2023-11-18T11:27:40.040Z,76.17
2023-11-18T11:32:54.888Z,75.90
2023-11-18T11:38:05.160Z,75.93
2023-11-18T11:43:10.795Z,76.15
2023-11-18T11:48:16.572Z,76.44
2023-11-18T11:53:24.137Z,76.60
2023-11-18T11:58:34.511Z,77.21
2023-11-18T12:03:46.215Z,77.33
2023-11-18T12:08:52.323Z,76.93
2023-11-18T12:14:10.961Z,77.41
2023-11-18T12:19:37.501Z,77.44
2023-11-18T12:24:39.842Z,77.78
2023-11-18T12:29:44.942Z,77.78
2023-11-18T12:34:55.024Z,78.20
2023-11-18T12:40:05.738Z,78.27
2023-11-18T12:45:37.516Z,78.68
2023-11-18T12:50:46.733Z,78.41
2023-11-18T12:55:49.460Z,78.38
2023-11-18T13:00:51.207Z,78.45
2023-11-18T13:05:53.291Z,78.63
2023-11-18T13:10:54.937Z,78.19
2023-11-18T13:15:56.588Z,78.19
2023-11-18T13:20:59.156Z,77.95
2023-11-18T13:26:01.555Z,78.01
2023-11-18T13:31:04.550Z,78.06
2023-11-18T13:36:07.823Z,78.08
2023-11-18T13:41:10.516Z,77.60
2023-11-18T13:46:15.750Z,77.54
2023-11-18T13:51:19.091Z,77.72
2023-11-18T13:56:21.330Z,77.15
2023-11-18T14:01:23.226Z,76.35
2023-11-18T14:06:28.497Z,76.33
2023-11-18T14:11:30.679Z,76.43
2023-11-18T14:16:32.322Z,76.01
2023-11-18T14:21:33.974Z,76.06
2023-11-18T14:26:35.694Z,76.22
2023-11-18T14:31:37.513Z,76.12
2023-11-18T14:36:39.193Z,76.38
2023-11-18T14:41:41.725Z,76.73
2023-11-18T14:46:43.706Z,77.17
2023-11-18T14:51:45.269Z,77.61
2023-11-18T14:56:50.422Z,78.18
2023-11-18T15:01:53.387Z,79.01
2023-11-18T15:07:00.652Z,79.93
2023-11-18T15:12:02.736Z,80.36
2023-11-18T15:17:04.616Z,80.54
2023-11-18T15:22:06.294Z,81.02
2023-11-18T15:27:07.816Z,81.48
2023-11-18T15:32:09.635Z,81.08
2023-11-18T15:37:11.510Z,81.60
2023-11-18T15:42:14.877Z,81.73
2023-11-18T15:47:18.336Z,82.03
2023-11-18T15:52:19.913Z,82.21
2023-11-18T15:57:22.642Z,82.44
2023-11-18T16:02:25.060Z,82.53
2023-11-18T16:07:26.646Z,82.58
2023-11-18T16:12:30.752Z,82.85
2023-11-18T16:17:32.340Z,82.61
2023-11-18T16:22:35.557Z,82.55
2023-11-18T16:27:37.377Z,82.75
2023-11-18T16:32:38.940Z,83.21
2023-11-18T16:37:40.898Z,82.79
2023-11-18T16:42:43.644Z,82.90
2023-11-18T16:47:46.933Z,83.12
2023-11-18T16:52:51.524Z,82.72
2023-11-18T16:57:54.692Z,82.89
2023-11-18T17:02:59.431Z,82.71
2023-11-18T17:08:02.577Z,82.93
2023-11-18T17:13:05.669Z,82.94
2023-11-18T17:18:07.503Z,83.17
2023-11-18T17:23:09.245Z,83.32
2023-11-18T17:28:10.889Z,83.08
2023-11-18T17:33:12.950Z,83.45
2023-11-18T17:38:14.556Z,83.38
2023-11-18T17:43:16.139Z,83.40
2023-11-18T17:48:17.761Z,83.89
2023-11-18T17:53:19.882Z,83.93
2023-11-18T17:58:21.536Z,83.80
2023-11-18T18:03:23.078Z,83.88
2023-11-18T18:08:24.737Z,83.89
2023-11-18T18:13:26.364Z,84.27
2023-11-18T18:18:28.112Z,84.24
2023-11-18T18:23:30.493Z,84.32
2023-11-18T18:28:32.079Z,84.47
2023-11-18T18:33:33.574Z,84.61
2023-11-18T18:38:35.115Z,84.59
2023-11-18T18:43:36.635Z,84.67
2023-11-18T18:48:38.290Z,84.45
2023-11-18T18:53:39.822Z,84.79
2023-11-18T18:58:41.420Z,84.68
2023-11-18T19:03:43.092Z,85.06
2023-11-18T19:08:44.715Z,85.11
2023-11-18T19:13:46.314Z,85.08
2023-11-18T19:18:47.889Z,84.99
2023-11-18T19:23:49.440Z,85.28
2023-11-18T19:28:50.978Z,85.16
2023-11-18T19:33:52.536Z,85.29
2023-11-18T19:38:54.125Z,85.31
2023-11-18T19:43:56.857Z,85.48
2023-11-18T19:48:58.656Z,85.29
2023-11-18T19:54:00.204Z,85.58
2023-11-18T19:59:01.818Z,85.68
2023-11-18T20:04:03.605Z,85.48
2023-11-18T20:09:07.525Z,85.11
2023-11-18T20:14:09.136Z,85.39
2023-11-18T20:19:10.785Z,85.58
2023-11-18T20:24:12.343Z,85.40
2023-11-18T20:29:14.724Z,85.16
2023-11-18T20:34:16.496Z,85.42
2023-11-18T20:39:20.702Z,85.33
2023-11-18T20:44:22.309Z,85.41
2023-11-18T20:49:23.924Z,85.13
2023-11-18T20:54:26.413Z,85.58
2023-11-18T20:59:28.144Z,85.86
2023-11-18T21:04:30.570Z,85.38
2023-11-18T21:09:32.256Z,85.02
2023-11-18T21:14:34.672Z,84.90
2023-11-18T21:19:36.225Z,84.45
2023-11-18T21:24:37.719Z,84.28
2023-11-18T21:29:39.284Z,84.07
2023-11-18T21:34:44.255Z,83.99
2023-11-18T21:39:46.159Z,83.84
2023-11-18T21:44:48.633Z,83.61
2023-11-18T21:49:52.821Z,83.48
2023-11-18T21:54:54.642Z,83.24
2023-11-18T21:59:56.228Z,83.40
2023-11-18T22:04:59.277Z,83.13
2023-11-18T22:10:00.944Z,83.15
2023-11-18T22:15:05.487Z,83.20
2023-11-18T22:20:13.538Z,83.64
2023-11-18T22:25:16.134Z,83.55
2023-11-18T22:30:18.381Z,83.96
2023-11-18T22:35:20.985Z,83.61
2023-11-18T22:40:23.166Z,83.79
2023-11-18T22:45:24.690Z,84.24
2023-11-18T22:50:26.402Z,84.61
2023-11-18T22:55:28.376Z,84.92
2023-11-18T23:00:36.006Z,84.98
2023-11-18T23:05:40.479Z,85.11
2023-11-18T23:10:42.205Z,85.22
2023-11-18T23:21:03.927Z,85.53
2023-11-18T23:26:06.741Z,85.42
2023-11-18T23:31:12.327Z,85.31
2023-11-18T23:36:17.055Z,85.78
2023-11-18T23:41:18.785Z,85.39
2023-11-18T23:46:20.725Z,85.57
2023-11-18T23:51:22.280Z,85.70
2023-11-18T23:56:23.806Z,85.37
